• Join FlightAware (Why Join?)
  • Login
  • US Flag 
10:17PM EST


 

Airport Tracker/Info


-or-


 

Live Flight TrackerFlight Track Log ✈ GJS3706 ✈ 27-Jun-2013 ✈ KALB - KORD

Flight Track Log - Related Links

Times and Time Zones

All times are in EDT time to prevent confusion due to time zone crossing. See the GJS3706 flight status page for this flight to view local times or setup timezone preferences in your user account.

Time Position Orientation Groundspeed Altitude Reporting Facility
EDT Latitude Longitude Course Direction KTS MPH feet Rate Location/Type
11:27AM 42.6708 -73.8492 210° Southwest 248 285 3,300  Level Boston Center
11:28AM 42.9813 -73.9813 324° Northwest  Level FlightAware Approximate
11:28AM 42.7244 -73.9042 323° Northwest 290 334 4,600  Level Boston Center
11:29AM 43.0109 -74.0975 279° West  Level FlightAware Approximate
11:29AM 42.8158 -73.9375 345° North 290 334 8,100  Level Boston Center
11:30AM 43.0222 -74.2269 276° West  Level FlightAware Approximate
11:30AM 42.8903 -73.9675 344° North 290 334 10,500  Level Boston Center
11:31AM 43.0315 -74.3567 276° West  Level FlightAware Approximate
11:31AM 42.9628 -73.9950 344° North 301 346 11,300  Level Boston Center
11:32AM 43.0769 -74.0375 345° North 347 399 13,900 2,280 Climbing Boston Center
11:33AM 43.1825 -74.0831 343° North 359 413 15,900 1,680 Climbing Boston Center
11:34AM 43.2183 -74.1953 294° West 345 397 17,300 1,500 Climbing Boston Center
11:35AM 43.2019 -74.3200 260° West 331 381 19,000 1,500 Climbing Boston Center
11:36AM 43.1889 -74.4761 264° West 353 406 20,300 1,500 Climbing Boston Center
11:37AM 43.1861 -74.6242 269° West 381 438 22,100 1,500 Climbing Boston Center
11:38AM 43.1853 -74.7722 270° West 393 452 23,300 1,200 Climbing Boston Center
11:39AM 43.1839 -74.9261 269° West 398 458 24,500 1,200 Climbing Boston Center
11:40AM 43.1806 -75.0825 268° West 404 465 25,800 1,140 Climbing Boston Center
11:41AM 43.1767 -75.2417 268° West 409 471 26,900 900 Climbing Boston Center
11:42AM 43.1769 -75.3983 270° West 414 476 27,700 960 Climbing Boston Center
11:43AM 43.1747 -75.5606 269° West 419 482 28,900 900 Climbing Boston Center
11:44AM 43.1722 -75.7200 269° West 419 482 29,600 600 Climbing Boston Center
11:45AM 43.1675 -75.8792 268° West 419 482 30,200 660 Climbing Boston Center
11:46AM 43.1647 -76.0414 269° West 419 482 31,000 660 Climbing Boston Center
11:47AM 43.1614 -76.2064 268° West 424 488 31,600 720 Climbing Boston Center
11:48AM 43.1603 -76.4103 270° West 436 502 32,600 840 Climbing Cleveland Center
11:49AM 43.1597 -76.5728 270° West 436 502 33,500 840 Climbing Cleveland Center
11:50AM 43.1606 -76.7150 271° West 436 502 34,300 720 Climbing Cleveland Center
11:51AM 43.1594 -76.8744 270° West 431 496 35,000 780 Climbing Cleveland Center
11:52AM 43.1586 -77.0511 270° West 425 489 35,900 780 Climbing Cleveland Center
11:53AM 43.1592 -77.2075 270° West 425 489 36,600 660 Climbing Cleveland Center
11:54AM 43.1553 -77.3644 268° West 425 489 37,300 600 Climbing Cleveland Center
11:55AM 43.1553 -77.5208 270° West 425 489 37,800 300 Climbing Cleveland Center
11:56AM 43.1531 -77.6747 269° West 420 483 38,000 60 Climbing Cleveland Center
11:57AM 43.1528 -77.8286 270° West 420 483 38,000  Level Cleveland Center
11:58AM 43.1478 -77.9794 267° West 415 478 38,000  Level Cleveland Center
11:59AM 43.1489 -78.1275 271° West 404 465 38,000  Level Cleveland Center
12:00PM 43.1436 -78.2728 267° West 399 459 38,000  Level Cleveland Center
12:01PM 43.1425 -78.4236 269° West 399 459 38,000  Level Cleveland Center
12:02PM 43.1367 -78.5689 267° West 399 459 38,000  Level Cleveland Center
12:03PM 43.1331 -78.7169 268° West 394 453 38,000  Level Cleveland Center
12:04PM 43.1289 -78.8622 268° West 394 453 38,000  Level Cleveland Center
12:05PM 43.1269 -79.0103 269° West 394 453 38,000  Level Cleveland Center
12:06PM 43.1167 -79.1333 264° West 390 449 38,000  Level Toronto Center
12:07PM 43.1000 -79.2833 261° West 390 449 38,000  Level Toronto Center
12:08PM 43.1000 -79.4333 270° West 390 449 38,000  Level Toronto Center
12:09PM 43.1000 -79.5833 270° West 400 460 38,000  Level Toronto Center
12:10PM 43.0833 -79.7500 262° West 400 460 38,000  Level Toronto Center
12:11PM 43.0833 -79.8833 270° West 400 460 38,000  Level Toronto Center
12:12PM 43.0833 -80.0500 270° West 400 460 38,000  Level Toronto Center
12:13PM 43.0667 -80.2000 261° West 410 472 38,000  Level Toronto Center
12:14PM 43.0667 -80.3333 270° West 410 472 38,000  Level Toronto Center
12:15PM 43.0667 -80.5167 270° West 410 472 38,000  Level Toronto Center
12:16PM 43.0500 -80.6667 261° West 420 483 38,000  Level Toronto Center
12:17PM 43.0333 -80.8167 261° West 420 483 38,000  Level Toronto Center
12:18PM 43.0333 -80.9833 270° West 420 483 38,000  Level Toronto Center
12:19PM 43.0167 -81.1667 263° West 420 483 38,000  Level Toronto Center
12:20PM 43.0167 -81.3000 270° West 420 483 38,000  Level Toronto Center
12:21PM 43.0167 -81.4500 270° West 430 495 38,000  Level Toronto Center
12:22PM 43.0167 -81.6167 270° West 430 495 38,000  Level Toronto Center
12:23PM 43.0167 -81.8000 270° West 430 495 38,000  Level Toronto Center
12:24PM 43.0000 -81.9667 262° West 430 495 38,000  Level Toronto Center
12:25PM 43.0000 -82.1167 270° West 430 495 38,000  Level Toronto Center
12:26PM 43.0000 -82.2833 270° West 420 483 38,000  Level Toronto Center
12:27PM 43.0000 -82.4333 270° West 420 483 38,000  Level Toronto Center
12:28PM 43.0000 -82.6000 270° West 420 483 38,000  Level Toronto Center
12:30PM 42.9994 -82.8031 270° West 424 488 38,000  Level Cleveland Center
12:31PM 42.9942 -82.9592 267° West 418 481 38,000  Level Cleveland Center
12:32PM 42.9867 -83.1178 266° West 423 487 38,000  Level Cleveland Center
12:33PM 42.9769 -83.2761 265° West 423 487 38,000 -180 Level Cleveland Center
12:34PM 42.9650 -83.4289 264° West 423 487 37,700 -1,020 Descending Cleveland Center
12:35PM 42.9567 -83.5903 266° West 423 487 36,000 -1,620 Descending Cleveland Center
12:36PM 42.9442 -83.7458 264° West 423 487 34,500 -1,500 Descending Cleveland Center
12:37PM 42.9314 -83.9039 264° West 423 487 33,000 -1,500 Descending Cleveland Center
12:38PM 42.9206 -84.0622 265° West 423 487 31,500 -1,560 Descending Cleveland Center
12:39PM 42.9092 -84.2258 265° West 423 487 30,000 -1,440 Descending Cleveland Center
12:40PM 42.9003 -84.3700 265° West 423 487 28,700 -840 Descending Cleveland Center
12:41PM 42.8842 -84.5808 264° West 419 482 28,000 -300 Descending Chicago Center
12:42PM 42.8656 -84.7717 262° West 422 486 28,000  Level Chicago Center
12:43PM 42.8489 -84.9242 262° West 414 476 28,000  Level Chicago Center
12:44PM 42.8336 -85.0689 262° West 395 455 28,000  Level Chicago Center
12:45PM 42.8172 -85.2142 261° West 390 449 28,000  Level Chicago Center
12:46PM 42.8028 -85.3597 262° West 388 447 28,000 -660 Level Chicago Center
12:47PM 42.7847 -85.5069 261° West 392 451 26,700 -1,260 Descending Chicago Center
12:48PM 42.7586 -85.6558 257° West 399 459 25,500 -1,260 Descending Chicago Center
12:49PM 42.7275 -85.8264 256° West 388 447 24,100 -1,320 Descending Chicago Center
12:50PM 42.7033 -85.9592 256° West 364 419 22,800 -1,260 Descending Chicago Center
12:51PM 42.6775 -86.0953 256° West 367 422 21,600 -1,200 Descending Chicago Center
12:52PM 42.6536 -86.2317 257° West 370 426 20,400 -780 Descending Chicago Center
12:53PM 42.6278 -86.3606 255° West 351 404 20,000 -240 Descending Chicago Center
12:55PM 42.6036 -86.4897 256° West 352 405 20,000 -420 Level Chicago Center
12:56PM 42.5797 -86.6181 256° West 350 403 19,200 -1,920 Descending Chicago Center
12:57PM 42.5492 -86.7739 255° West 355 409 16,100 -2,460 Descending Chicago Center
12:58PM 42.5186 -86.8836 249° West 315 362 14,100 -1,980 Descending Chicago Center
12:59PM 42.4889 -86.9894 249° West 303 349 12,100 -1,980 Descending Chicago Center
01:00PM 42.4606 -87.0903 249° West 287 330 10,100 -1,500 Descending Chicago Center
01:01PM 42.4331 -87.1889 249° West 282 325 9,100 -720 Descending Chicago Center
01:02PM 42.4064 -87.2833 249° West 272 313 8,700 -1,020 Descending Chicago Center
01:03PM 42.3750 -87.4000 250° West 273 314 7,000 -1,260 Descending Chicago Center
01:04PM 42.3481 -87.4975 250° West 267 307 6,100 -540 Descending Chicago Center
01:05PM 42.2925 -87.5353 207° Southwest 292 336 6,000 -300 Descending Chicago Center
01:06PM 42.1931 -87.5425 183° South 300 345 5,500 -540 Descending Chicago Center
01:07PM 42.1164 -87.5461 182° South 281 323 5,000 -720 Descending Chicago Center
01:08PM 42.0606 -87.5947 213° Southwest 246 283 4,100 -720 Descending Chicago Center
01:09PM 42.0308 -87.6594 238° Southwest 223 257 3,500 -600 Descending Chicago Center